sensor_id;sensor_type;location;lat;lon;timestamp;pressure;altitude;pressure_sealevel;temperature;humidity
4143;BME280;2085;51.052;6.958;2022-09-03T00:01:11;100775.00;;;18.36;42.64
4143;BME280;2085;51.052;6.958;2022-09-03T00:03:43;100774.53;;;18.31;42.77
4143;BME280;2085;51.052;6.958;2022-09-03T00:06:13;100774.88;;;18.26;42.90
4143;BME280;2085;51.052;6.958;2022-09-03T00:08:45;100776.22;;;18.20;42.67
4143;BME280;2085;51.052;6.958;2022-09-03T00:11:17;100775.75;;;18.15;42.86
4143;BME280;2085;51.052;6.958;2022-09-03T00:13:49;100771.78;;;18.10;42.98
4143;BME280;2085;51.052;6.958;2022-09-03T00:16:19;100774.06;;;18.03;42.75
4143;BME280;2085;51.052;6.958;2022-09-03T00:18:52;100771.78;;;17.99;42.63
4143;BME280;2085;51.052;6.958;2022-09-03T00:21:28;100767.66;;;17.95;42.81
4143;BME280;2085;51.052;6.958;2022-09-03T00:23:58;100764.28;;;17.93;43.01
4143;BME280;2085;51.052;6.958;2022-09-03T00:26:27;100768.75;;;17.92;43.00
4143;BME280;2085;51.052;6.958;2022-09-03T00:29:01;100767.94;;;17.92;43.00
4143;BME280;2085;51.052;6.958;2022-09-03T00:31:31;100772.41;;;17.91;43.00
4143;BME280;2085;51.052;6.958;2022-09-03T00:34:06;100775.19;;;17.90;43.04
4143;BME280;2085;51.052;6.958;2022-09-03T00:36:38;100776.28;;;17.87;42.94
4143;BME280;2085;51.052;6.958;2022-09-03T00:39:09;100771.91;;;17.86;42.96
4143;BME280;2085;51.052;6.958;2022-09-03T00:41:38;100773.84;;;17.84;43.01
4143;BME280;2085;51.052;6.958;2022-09-03T00:44:32;100771.19;;;17.84;43.04
4143;BME280;2085;51.052;6.958;2022-09-03T00:47:09;100773.97;;;17.82;43.09
4143;BME280;2085;51.052;6.958;2022-09-03T00:49:47;100772.28;;;17.81;42.89
4143;BME280;2085;51.052;6.958;2022-09-03T00:52:25;100767.06;;;17.80;42.92
4143;BME280;2085;51.052;6.958;2022-09-03T00:55:04;100761.03;;;17.78;43.33
4143;BME280;2085;51.052;6.958;2022-09-03T00:57:42;100768.03;;;17.79;43.18
4143;BME280;2085;51.052;6.958;2022-09-03T01:00:16;100769.03;;;17.78;43.15
4143;BME280;2085;51.052;6.958;2022-09-03T01:02:56;100769.13;;;17.76;43.24
4143;BME280;2085;51.052;6.958;2022-09-03T01:05:42;100764.66;;;17.77;43.30
4143;BME280;2085;51.052;6.958;2022-09-03T01:08:27;100759.44;;;17.75;43.08
4143;BME280;2085;51.052;6.958;2022-09-03T01:11:04;100757.63;;;17.76;43.43
4143;BME280;2085;51.052;6.958;2022-09-03T01:13:39;100754.25;;;17.74;43.30
4143;BME280;2085;51.052;6.958;2022-09-03T01:16:12;100754.47;;;17.71;43.16
4143;BME280;2085;51.052;6.958;2022-09-03T01:18:47;100768.91;;;17.68;43.27
4143;BME280;2085;51.052;6.958;2022-09-03T01:21:34;100757.66;;;17.65;43.21
4143;BME280;2085;51.052;6.958;2022-09-03T01:24:23;100759.56;;;17.63;43.19
4143;BME280;2085;51.052;6.958;2022-09-03T01:27:06;100759.69;;;17.61;43.54
4143;BME280;2085;51.052;6.958;2022-09-03T01:29:42;100756.38;;;17.58;43.46
4143;BME280;2085;51.052;6.958;2022-09-03T01:32:20;100764.47;;;17.56;43.45
4143;BME280;2085;51.052;6.958;2022-09-03T01:34:55;100750.56;;;17.53;43.55
4143;BME280;2085;51.052;6.958;2022-09-03T01:37:33;100759.50;;;17.52;43.63
4143;BME280;2085;51.052;6.958;2022-09-03T01:40:12;100753.22;;;17.53;43.49
4143;BME280;2085;51.052;6.958;2022-09-03T01:42:50;100761.22;;;17.53;43.51
4143;BME280;2085;51.052;6.958;2022-09-03T01:45:36;100760.50;;;17.51;43.48
4143;BME280;2085;51.052;6.958;2022-09-03T01:48:25;100767.63;;;17.50;43.62
4143;BME280;2085;51.052;6.958;2022-09-03T01:50:57;100760.72;;;17.48;43.36
4143;BME280;2085;51.052;6.958;2022-09-03T01:53:43;100762.78;;;17.44;43.60
4143;BME280;2085;51.052;6.958;2022-09-03T01:56:24;100763.03;;;17.41;43.48
4143;BME280;2085;51.052;6.958;2022-09-03T01:58:58;100758.06;;;17.36;43.85
4143;BME280;2085;51.052;6.958;2022-09-03T02:01:32;100752.13;;;17.33;43.78
4143;BME280;2085;51.052;6.958;2022-09-03T02:04:00;100757.81;;;17.28;43.83
4143;BME280;2085;51.052;6.958;2022-09-03T02:06:28;100760.81;;;17.24;43.76
4143;BME280;2085;51.052;6.958;2022-09-03T02:08:56;100762.84;;;17.20;44.18
4143;BME280;2085;51.052;6.958;2022-09-03T02:11:23;100752.44;;;17.17;43.81
4143;BME280;2085;51.052;6.958;2022-09-03T02:13:51;100759.72;;;17.15;43.96
4143;BME280;2085;51.052;6.958;2022-09-03T02:16:21;100750.25;;;17.11;44.00
4143;BME280;2085;51.052;6.958;2022-09-03T02:18:53;100757.50;;;17.09;43.99
4143;BME280;2085;51.052;6.958;2022-09-03T02:21:23;100759.44;;;17.07;43.93
4143;BME280;2085;51.052;6.958;2022-09-03T02:23:51;100755.31;;;17.03;43.93
4143;BME280;2085;51.052;6.958;2022-09-03T02:26:20;100746.72;;;17.00;43.93
4143;BME280;2085;51.052;6.958;2022-09-03T02:28:49;100763.78;;;16.97;44.18
4143;BME280;2085;51.052;6.958;2022-09-03T02:31:16;100757.00;;;16.93;43.93
4143;BME280;2085;51.052;6.958;2022-09-03T02:33:44;100760.63;;;16.92;43.95
4143;BME280;2085;51.052;6.958;2022-09-03T02:36:15;100753.84;;;16.88;44.20
4143;BME280;2085;51.052;6.958;2022-09-03T02:38:44;100748.63;;;16.86;44.24
4143;BME280;2085;51.052;6.958;2022-09-03T02:41:12;100753.34;;;16.83;44.25
4143;BME280;2085;51.052;6.958;2022-09-03T02:43:44;100749.94;;;16.81;43.96
4143;BME280;2085;51.052;6.958;2022-09-03T02:46:17;100747.50;;;16.78;44.20
4143;BME280;2085;51.052;6.958;2022-09-03T02:48:45;100746.66;;;16.77;44.12
4143;BME280;2085;51.052;6.958;2022-09-03T02:51:13;100745.81;;;16.77;44.23
4143;BME280;2085;51.052;6.958;2022-09-03T02:53:40;100751.13;;;16.77;44.36
4143;BME280;2085;51.052;6.958;2022-09-03T02:56:07;100751.03;;;16.78;44.19
4143;BME280;2085;51.052;6.958;2022-09-03T02:58:34;100744.59;;;16.81;44.31
4143;BME280;2085;51.052;6.958;2022-09-03T03:01:00;100753.34;;;16.83;44.10
4143;BME280;2085;51.052;6.958;2022-09-03T03:03:27;100747.06;;;16.84;44.39
4143;BME280;2085;51.052;6.958;2022-09-03T03:05:55;100749.56;;;16.85;44.39
4143;BME280;2085;51.052;6.958;2022-09-03T03:08:26;100748.53;;;16.88;44.19
4143;BME280;2085;51.052;6.958;2022-09-03T03:10:55;100737.63;;;16.91;44.03
4143;BME280;2085;51.052;6.958;2022-09-03T03:13:24;100745.38;;;16.94;44.03
4143;BME280;2085;51.052;6.958;2022-09-03T03:15:51;100736.44;;;16.95;44.22
4143;BME280;2085;51.052;6.958;2022-09-03T03:18:20;100747.81;;;16.97;44.15
4143;BME280;2085;51.052;6.958;2022-09-03T03:20:47;100739.84;;;16.97;44.37
4143;BME280;2085;51.052;6.958;2022-09-03T03:23:14;100737.91;;;16.99;44.06
4143;BME280;2085;51.052;6.958;2022-09-03T03:25:42;100728.22;;;16.98;44.21
4143;BME280;2085;51.052;6.958;2022-09-03T03:28:08;100731.88;;;16.97;43.92
4143;BME280;2085;51.052;6.958;2022-09-03T03:30:36;100739.09;;;16.95;44.22
4143;BME280;2085;51.052;6.958;2022-09-03T03:33:04;100737.41;;;16.94;44.48
4143;BME280;2085;51.052;6.958;2022-09-03T03:35:31;100735.72;;;16.93;44.22
4143;BME280;2085;51.052;6.958;2022-09-03T03:37:58;100732.06;;;16.94;44.51
4143;BME280;2085;51.052;6.958;2022-09-03T03:40:25;100736.44;;;16.95;44.22
4143;BME280;2085;51.052;6.958;2022-09-03T03:42:56;100728.56;;;16.93;44.35
4143;BME280;2085;51.052;6.958;2022-09-03T03:45:22;100732.94;;;16.94;44.43
4143;BME280;2085;51.052;6.958;2022-09-03T03:47:49;100732.81;;;16.96;44.25
4143;BME280;2085;51.052;6.958;2022-09-03T03:50:16;100733.69;;;16.97;44.33
4143;BME280;2085;51.052;6.958;2022-09-03T03:52:44;100731.03;;;16.97;44.46
4143;BME280;2085;51.052;6.958;2022-09-03T03:55:10;100736.44;;;16.95;44.19
4143;BME280;2085;51.052;6.958;2022-09-03T03:57:37;100731.38;;;16.92;44.39
4143;BME280;2085;51.052;6.958;2022-09-03T04:00:06;100728.91;;;16.89;44.56
4143;BME280;2085;51.052;6.958;2022-09-03T04:02:33;100731.81;;;16.86;44.41
4143;BME280;2085;51.052;6.958;2022-09-03T04:04:59;100727.47;;;16.85;44.40
4143;BME280;2085;51.052;6.958;2022-09-03T04:07:26;100728.56;;;16.82;44.42
4143;BME280;2085;51.052;6.958;2022-09-03T04:09:52;100726.75;;;16.83;44.47
4143;BME280;2085;51.052;6.958;2022-09-03T04:12:19;100722.63;;;16.79;44.28
4143;BME280;2085;51.052;6.958;2022-09-03T04:14:45;100720.91;;;16.78;44.60
4143;BME280;2085;51.052;6.958;2022-09-03T04:17:13;100723.69;;;16.76;44.58
4143;BME280;2085;51.052;6.958;2022-09-03T04:19:40;100726.47;;;16.75;44.19
4143;BME280;2085;51.052;6.958;2022-09-03T04:22:07;100729.25;;;16.73;44.52
4143;BME280;2085;51.052;6.958;2022-09-03T04:24:34;100725.00;;;16.71;44.56
4143;BME280;2085;51.052;6.958;2022-09-03T04:27:01;100722.47;;;16.69;44.70
4143;BME280;2085;51.052;6.958;2022-09-03T04:29:27;100725.22;;;16.68;44.65
4143;BME280;2085;51.052;6.958;2022-09-03T04:31:55;100722.56;;;16.68;44.64
4143;BME280;2085;51.052;6.958;2022-09-03T04:34:40;100721.84;;;16.66;44.82
4143;BME280;2085;51.052;6.958;2022-09-03T04:37:07;100724.63;;;16.64;44.48
4143;BME280;2085;51.052;6.958;2022-09-03T04:39:34;100728.13;;;16.65;44.80
4143;BME280;2085;51.052;6.958;2022-09-03T04:42:01;100723.78;;;16.64;44.79
4143;BME280;2085;51.052;6.958;2022-09-03T04:44:28;100730.78;;;16.65;44.69
4143;BME280;2085;51.052;6.958;2022-09-03T04:46:54;100737.81;;;16.66;44.71
4143;BME280;2085;51.052;6.958;2022-09-03T04:49:21;100740.31;;;16.67;44.65
4143;BME280;2085;51.052;6.958;2022-09-03T04:51:50;100726.94;;;16.69;44.87
4143;BME280;2085;51.052;6.958;2022-09-03T04:54:17;100738.41;;;16.69;44.59
4143;BME280;2085;51.052;6.958;2022-09-03T04:56:43;100738.53;;;16.68;44.85
4143;BME280;2085;51.052;6.958;2022-09-03T04:59:10;100738.41;;;16.69;44.93
4143;BME280;2085;51.052;6.958;2022-09-03T05:01:38;100734.81;;;16.70;44.71
4143;BME280;2085;51.052;6.958;2022-09-03T05:04:06;100733.94;;;16.70;44.80
4143;BME280;2085;51.052;6.958;2022-09-03T05:06:33;100735.63;;;16.71;44.68
4143;BME280;2085;51.052;6.958;2022-09-03T05:09:03;100736.38;;;16.73;44.96
4143;BME280;2085;51.052;6.958;2022-09-03T05:11:30;100736.25;;;16.74;44.85
4143;BME280;2085;51.052;6.958;2022-09-03T05:13:58;100729.97;;;16.75;44.77
4143;BME280;2085;51.052;6.958;2022-09-03T05:16:25;100736.88;;;16.78;44.83
4143;BME280;2085;51.052;6.958;2022-09-03T05:18:56;100730.97;;;16.85;45.02
4143;BME280;2085;51.052;6.958;2022-09-03T05:21:23;100742.06;;;17.14;44.73
4143;BME280;2085;51.052;6.958;2022-09-03T05:23:51;100733.75;;;17.52;44.50
4143;BME280;2085;51.052;6.958;2022-09-03T05:26:21;100727.97;;;17.92;43.91
4143;BME280;2085;51.052;6.958;2022-09-03T05:28:52;100729.59;;;18.26;43.44
4143;BME280;2085;51.052;6.958;2022-09-03T05:31:19;100726.97;;;18.58;43.31
4143;BME280;2085;51.052;6.958;2022-09-03T05:33:48;100730.47;;;18.90;42.99
4143;BME280;2085;51.052;6.958;2022-09-03T05:36:17;100731.94;;;19.25;42.73
4143;BME280;2085;51.052;6.958;2022-09-03T05:38:45;100723.28;;;19.53;42.25
4143;BME280;2085;51.052;6.958;2022-09-03T05:41:13;100724.78;;;19.76;42.23
4143;BME280;2085;51.052;6.958;2022-09-03T05:43:42;100726.41;;;19.98;42.33
4143;BME280;2085;51.052;6.958;2022-09-03T05:46:10;100719.13;;;20.19;42.16
4143;BME280;2085;51.052;6.958;2022-09-03T05:48:39;100718.91;;;20.41;41.78
4143;BME280;2085;51.052;6.958;2022-09-03T05:51:08;100728.06;;;20.58;41.96
4143;BME280;2085;51.052;6.958;2022-09-03T05:53:37;100724.13;;;20.72;41.54
4143;BME280;2085;51.052;6.958;2022-09-03T05:56:05;100729.22;;;20.84;41.90
4143;BME280;2085;51.052;6.958;2022-09-03T05:58:35;100723.41;;;20.99;41.85
4143;BME280;2085;51.052;6.958;2022-09-03T06:01:10;100732.13;;;21.10;41.54
4143;BME280;2085;51.052;6.958;2022-09-03T06:03:38;100734.53;;;21.13;41.80
4143;BME280;2085;51.052;6.958;2022-09-03T06:06:05;100734.53;;;21.04;42.01
4143;BME280;2085;51.052;6.958;2022-09-03T06:08:32;100731.16;;;20.73;42.33
4143;BME280;2085;51.052;6.958;2022-09-03T06:10:59;100735.94;;;20.40;42.92
4143;BME280;2085;51.052;6.958;2022-09-03T06:13:28;100738.53;;;20.12;43.40
4143;BME280;2085;51.052;6.958;2022-09-03T06:15:56;100741.28;;;19.91;43.46
4143;BME280;2085;51.052;6.958;2022-09-03T06:18:24;100745.16;;;19.77;43.59
4143;BME280;2085;51.052;6.958;2022-09-03T06:20:54;100740.50;;;19.70;43.73
4143;BME280;2085;51.052;6.958;2022-09-03T06:23:21;100740.47;;;19.60;43.89
4143;BME280;2085;51.052;6.958;2022-09-03T06:25:58;100747.56;;;19.50;43.73
4143;BME280;2085;51.052;6.958;2022-09-03T06:28:25;100745.94;;;19.38;44.22
4143;BME280;2085;51.052;6.958;2022-09-03T06:30:52;100751.78;;;19.32;44.03
4143;BME280;2085;51.052;6.958;2022-09-03T06:33:18;100745.03;;;19.28;44.27
4143;BME280;2085;51.052;6.958;2022-09-03T06:35:46;100748.69;;;19.27;44.35
4143;BME280;2085;51.052;6.958;2022-09-03T06:38:13;100749.78;;;19.24;44.21
4143;BME280;2085;51.052;6.958;2022-09-03T06:40:39;100746.41;;;19.22;43.95
4143;BME280;2085;51.052;6.958;2022-09-03T06:43:06;100747.50;;;19.20;44.07
4143;BME280;2085;51.052;6.958;2022-09-03T06:45:35;100747.91;;;19.15;44.14
4143;BME280;2085;51.052;6.958;2022-09-03T06:48:02;100753.63;;;19.10;44.43
4143;BME280;2085;51.052;6.958;2022-09-03T06:50:29;100745.63;;;19.10;44.27
4143;BME280;2085;51.052;6.958;2022-09-03T06:52:57;100749.72;;;19.14;44.53
4143;BME280;2085;51.052;6.958;2022-09-03T06:55:24;100745.56;;;19.22;44.36
4143;BME280;2085;51.052;6.958;2022-09-03T06:57:54;100755.47;;;19.31;44.58
4143;BME280;2085;51.052;6.958;2022-09-03T07:00:21;100745.94;;;19.38;44.31
4143;BME280;2085;51.052;6.958;2022-09-03T07:02:47;100750.50;;;19.47;44.42
4143;BME280;2085;51.052;6.958;2022-09-03T07:05:16;100735.38;;;19.57;44.15
4143;BME280;2085;51.052;6.958;2022-09-03T07:07:42;100741.75;;;19.66;44.21
4143;BME280;2085;51.052;6.958;2022-09-03T07:10:11;100753.44;;;19.74;44.01
4143;BME280;2085;51.052;6.958;2022-09-03T07:12:40;100747.59;;;19.80;44.14
4143;BME280;2085;51.052;6.958;2022-09-03T07:15:08;100744.22;;;19.88;44.11
4143;BME280;2085;51.052;6.958;2022-09-03T07:17:34;100747.34;;;19.93;44.05
4143;BME280;2085;51.052;6.958;2022-09-03T07:20:02;100753.81;;;20.00;44.17
4143;BME280;2085;51.052;6.958;2022-09-03T07:22:28;100750.50;;;20.08;43.96
4143;BME280;2085;51.052;6.958;2022-09-03T07:24:55;100755.44;;;20.22;44.23
4143;BME280;2085;51.052;6.958;2022-09-03T07:27:23;100746.91;;;20.37;43.63
4143;BME280;2085;51.052;6.958;2022-09-03T07:29:50;100750.28;;;20.49;43.95
4143;BME280;2085;51.052;6.958;2022-09-03T07:32:17;100748.47;;;20.59;43.87
4143;BME280;2085;51.052;6.958;2022-09-03T07:34:43;100742.44;;;20.76;43.73
4143;BME280;2085;51.052;6.958;2022-09-03T07:37:10;100747.22;;;20.92;43.55
4143;BME280;2085;51.052;6.958;2022-09-03T07:39:36;100752.69;;;21.10;43.17
4143;BME280;2085;51.052;6.958;2022-09-03T07:42:05;100746.50;;;21.19;43.44
4143;BME280;2085;51.052;6.958;2022-09-03T07:44:36;100754.25;;;21.22;43.31
4143;BME280;2085;51.052;6.958;2022-09-03T07:47:03;100751.56;;;21.22;43.50
4143;BME280;2085;51.052;6.958;2022-09-03T07:49:30;100747.63;;;21.26;43.09
4143;BME280;2085;51.052;6.958;2022-09-03T07:51:57;100748.03;;;21.31;43.36
4143;BME280;2085;51.052;6.958;2022-09-03T07:54:23;100758.47;;;21.34;43.26
4143;BME280;2085;51.052;6.958;2022-09-03T07:56:51;100764.25;;;21.29;43.23
4143;BME280;2085;51.052;6.958;2022-09-03T07:59:18;100757.03;;;21.30;43.11
4143;BME280;2085;51.052;6.958;2022-09-03T08:01:46;100751.97;;;21.36;43.27
4143;BME280;2085;51.052;6.958;2022-09-03T08:04:13;100759.84;;;21.48;42.92
4143;BME280;2085;51.052;6.958;2022-09-03T08:06:40;100777.16;;;21.53;42.99
4143;BME280;2085;51.052;6.958;2022-09-03T08:09:08;100766.28;;;21.55;43.21
4143;BME280;2085;51.052;6.958;2022-09-03T08:11:37;100770.22;;;21.60;42.96
4143;BME280;2085;51.052;6.958;2022-09-03T08:14:05;100775.69;;;21.68;42.93
4143;BME280;2085;51.052;6.958;2022-09-03T08:16:33;100775.50;;;21.79;42.73
4143;BME280;2085;51.052;6.958;2022-09-03T08:19:01;100773.81;;;21.88;42.85
4143;BME280;2085;51.052;6.958;2022-09-03T08:21:28;100773.50;;;22.01;43.02
4143;BME280;2085;51.052;6.958;2022-09-03T08:23:56;100774.97;;;22.13;43.10
4143;BME280;2085;51.052;6.958;2022-09-03T08:26:27;100778.72;;;22.20;42.62
4143;BME280;2085;51.052;6.958;2022-09-03T08:28:55;100778.84;;;22.28;42.50
4143;BME280;2085;51.052;6.958;2022-09-03T08:31:22;100774.63;;;22.43;42.54
4143;BME280;2085;51.052;6.958;2022-09-03T08:33:52;100776.97;;;22.56;42.49
4143;BME280;2085;51.052;6.958;2022-09-03T08:36:21;100774.19;;;22.65;42.40
4143;BME280;2085;51.052;6.958;2022-09-03T08:38:50;100776.25;;;22.81;42.35
4143;BME280;2085;51.052;6.958;2022-09-03T08:41:23;100781.91;;;22.96;42.51
4143;BME280;2085;51.052;6.958;2022-09-03T08:44:05;100781.22;;;22.94;42.56
4143;BME280;2085;51.052;6.958;2022-09-03T08:46:42;100781.22;;;22.94;42.13
4143;BME280;2085;51.052;6.958;2022-09-03T08:49:14;100779.75;;;22.99;42.27
4143;BME280;2085;51.052;6.958;2022-09-03T08:51:46;100781.00;;;23.05;42.70
4143;BME280;2085;51.052;6.958;2022-09-03T08:54:13;100788.88;;;23.06;42.23
4143;BME280;2085;51.052;6.958;2022-09-03T08:56:41;100786.13;;;22.98;42.50
4143;BME280;2085;51.052;6.958;2022-09-03T08:59:09;100788.94;;;22.97;42.34
4143;BME280;2085;51.052;6.958;2022-09-03T09:01:44;100783.81;;;23.03;42.43
4143;BME280;2085;51.052;6.958;2022-09-03T09:04:23;100795.31;;;23.13;42.29
4143;BME280;2085;51.052;6.958;2022-09-03T09:06:59;100794.16;;;23.16;42.19
4143;BME280;2085;51.052;6.958;2022-09-03T09:09:36;100798.16;;;23.12;42.16
4143;BME280;2085;51.052;6.958;2022-09-03T09:12:13;100790.25;;;22.93;42.76
4143;BME280;2085;51.052;6.958;2022-09-03T09:14:45;100795.09;;;22.72;43.08
4143;BME280;2085;51.052;6.958;2022-09-03T09:17:26;100792.38;;;22.54;43.18
4143;BME280;2085;51.052;6.958;2022-09-03T09:20:04;100800.38;;;22.36;43.12
4143;BME280;2085;51.052;6.958;2022-09-03T09:22:36;100794.75;;;22.30;43.59
4143;BME280;2085;51.052;6.958;2022-09-03T09:25:07;100800.97;;;22.30;43.32
4143;BME280;2085;51.052;6.958;2022-09-03T09:27:40;100797.16;;;22.33;43.13
4143;BME280;2085;51.052;6.958;2022-09-03T09:30:13;100797.00;;;22.34;43.04
4143;BME280;2085;51.052;6.958;2022-09-03T09:32:42;100788.09;;;22.34;43.45
4143;BME280;2085;51.052;6.958;2022-09-03T09:35:09;100797.41;;;22.39;43.45
4143;BME280;2085;51.052;6.958;2022-09-03T09:37:50;100791.75;;;22.42;43.62
4143;BME280;2085;51.052;6.958;2022-09-03T09:40:31;100791.75;;;22.42;43.29
4143;BME280;2085;51.052;6.958;2022-09-03T09:43:09;100783.00;;;22.40;43.56
4143;BME280;2085;51.052;6.958;2022-09-03T09:45:37;100793.03;;;22.38;43.22
4143;BME280;2085;51.052;6.958;2022-09-03T09:48:08;100789.66;;;22.36;43.36
4143;BME280;2085;51.052;6.958;2022-09-03T09:50:35;100795.03;;;22.36;43.38
4143;BME280;2085;51.052;6.958;2022-09-03T09:53:06;100789.25;;;22.31;43.54
4143;BME280;2085;51.052;6.958;2022-09-03T09:55:48;100802.59;;;22.23;43.51
4143;BME280;2085;51.052;6.958;2022-09-03T09:58:18;100805.31;;;22.13;44.04
4143;BME280;2085;51.052;6.958;2022-09-03T10:00:54;100804.78;;;22.10;44.19
4143;BME280;2085;51.052;6.958;2022-09-03T10:03:21;100811.66;;;22.12;44.26
4143;BME280;2085;51.052;6.958;2022-09-03T10:05:59;100814.03;;;22.15;43.94
4143;BME280;2085;51.052;6.958;2022-09-03T10:08:48;100816.50;;;21.99;43.92
4143;BME280;2085;51.052;6.958;2022-09-03T10:11:16;100812.56;;;21.84;44.20
4143;BME280;2085;51.052;6.958;2022-09-03T10:13:45;100809.97;;;21.65;44.55
4143;BME280;2085;51.052;6.958;2022-09-03T10:16:20;100819.44;;;21.59;44.57
4143;BME280;2085;51.052;6.958;2022-09-03T10:18:54;100817.31;;;21.53;44.59
4143;BME280;2085;51.052;6.958;2022-09-03T10:21:27;100816.34;;;21.54;44.90
4143;BME280;2085;51.052;6.958;2022-09-03T10:24:18;100813.09;;;21.60;44.61
4143;BME280;2085;51.052;6.958;2022-09-03T10:26:50;100809.44;;;21.61;44.71
4143;BME280;2085;51.052;6.958;2022-09-03T10:29:20;100803.47;;;21.67;44.80
4143;BME280;2085;51.052;6.958;2022-09-03T10:32:09;100810.06;;;21.83;44.62
4143;BME280;2085;51.052;6.958;2022-09-03T10:34:44;100815.13;;;21.95;44.94
4143;BME280;2085;51.052;6.958;2022-09-03T10:37:20;100799.41;;;22.10;44.41
4143;BME280;2085;51.052;6.958;2022-09-03T10:40:10;100805.00;;;22.16;44.61
4143;BME280;2085;51.052;6.958;2022-09-03T10:42:43;100807.78;;;22.24;44.72
4143;BME280;2085;51.052;6.958;2022-09-03T10:45:18;100800.69;;;22.33;44.72
4143;BME280;2085;51.052;6.958;2022-09-03T10:48:06;100805.97;;;22.43;44.67
4143;BME280;2085;51.052;6.958;2022-09-03T10:50:45;100795.50;;;22.49;44.65
4143;BME280;2085;51.052;6.958;2022-09-03T10:53:20;100794.59;;;22.58;44.82
4143;BME280;2085;51.052;6.958;2022-09-03T10:55:58;100792.00;;;22.66;44.65
4143;BME280;2085;51.052;6.958;2022-09-03T10:58:44;100784.88;;;22.75;44.68
4143;BME280;2085;51.052;6.958;2022-09-03T11:01:20;100788.22;;;22.87;44.57
4143;BME280;2085;51.052;6.958;2022-09-03T11:03:55;100792.00;;;23.02;44.76
4143;BME280;2085;51.052;6.958;2022-09-03T11:06:28;100788.00;;;23.24;44.39
4143;BME280;2085;51.052;6.958;2022-09-03T11:08:57;100794.94;;;23.52;44.54
4143;BME280;2085;51.052;6.958;2022-09-03T11:11:31;100786.16;;;23.68;43.96
4143;BME280;2085;51.052;6.958;2022-09-03T11:14:03;100789.25;;;23.81;44.10
4143;BME280;2085;51.052;6.958;2022-09-03T11:16:36;100781.97;;;23.99;43.78
4143;BME280;2085;51.052;6.958;2022-09-03T11:19:08;100784.69;;;24.15;44.21
4143;BME280;2085;51.052;6.958;2022-09-03T11:21:39;100775.91;;;24.39;43.74
4143;BME280;2085;51.052;6.958;2022-09-03T11:24:11;100769.75;;;24.63;43.46
4143;BME280;2085;51.052;6.958;2022-09-03T11:26:42;100765.06;;;24.81;43.79
4143;BME280;2085;51.052;6.958;2022-09-03T11:29:14;100759.00;;;24.87;43.27
4143;BME280;2085;51.052;6.958;2022-09-03T11:31:53;100763.75;;;24.93;43.15
4143;BME280;2085;51.052;6.958;2022-09-03T11:34:28;100750.59;;;25.06;43.42
4143;BME280;2085;51.052;6.958;2022-09-03T11:37:13;100752.44;;;25.22;43.32
4143;BME280;2085;51.052;6.958;2022-09-03T11:39:41;100745.00;;;25.32;42.98
4143;BME280;2085;51.052;6.958;2022-09-03T11:42:11;100753.28;;;25.30;43.10
4143;BME280;2085;51.052;6.958;2022-09-03T11:44:45;100740.84;;;25.21;43.21
4143;BME280;2085;51.052;6.958;2022-09-03T11:47:21;100748.91;;;25.05;43.09
4143;BME280;2085;51.052;6.958;2022-09-03T11:49:49;100737.81;;;24.92;42.98
4143;BME280;2085;51.052;6.958;2022-09-03T11:52:27;100734.25;;;24.83;43.07
4143;BME280;2085;51.052;6.958;2022-09-03T11:54:54;100733.06;;;24.70;43.43
4143;BME280;2085;51.052;6.958;2022-09-03T11:57:26;100731.38;;;24.69;43.33
4143;BME280;2085;51.052;6.958;2022-09-03T11:59:54;100729.03;;;24.74;43.21
4143;BME280;2085;51.052;6.958;2022-09-03T12:02:34;100726.84;;;24.85;43.49
4143;BME280;2085;51.052;6.958;2022-09-03T12:05:12;100728.03;;;24.99;43.39
4143;BME280;2085;51.052;6.958;2022-09-03T12:07:54;100724.50;;;25.07;43.29
4143;BME280;2085;51.052;6.958;2022-09-03T12:10:33;100731.38;;;25.17;42.86
4143;BME280;2085;51.052;6.958;2022-09-03T12:13:20;100731.03;;;25.28;43.06
4143;BME280;2085;51.052;6.958;2022-09-03T12:16:14;100727.69;;;25.35;43.01
4143;BME280;2085;51.052;6.958;2022-09-03T12:18:47;100727.47;;;25.44;42.87
4143;BME280;2085;51.052;6.958;2022-09-03T12:21:17;100729.63;;;25.49;43.02
4143;BME280;2085;51.052;6.958;2022-09-03T12:23:45;100726.94;;;25.49;42.52
4143;BME280;2085;51.052;6.958;2022-09-03T12:26:14;100722.25;;;25.51;42.96
4143;BME280;2085;51.052;6.958;2022-09-03T12:28:46;100716.34;;;25.55;42.88
4143;BME280;2085;51.052;6.958;2022-09-03T12:31:16;100721.41;;;25.58;43.09
4143;BME280;2085;51.052;6.958;2022-09-03T12:33:48;100720.88;;;25.63;42.98
4143;BME280;2085;51.052;6.958;2022-09-03T12:36:16;100730.63;;;25.72;42.87
4143;BME280;2085;51.052;6.958;2022-09-03T12:38:43;100721.16;;;25.76;42.35
4143;BME280;2085;51.052;6.958;2022-09-03T12:41:23;100720.13;;;25.85;42.34
4143;BME280;2085;51.052;6.958;2022-09-03T12:43:53;100719.91;;;25.95;42.22
4143;BME280;2085;51.052;6.958;2022-09-03T12:46:24;100713.34;;;25.97;42.14
4143;BME280;2085;51.052;6.958;2022-09-03T12:48:56;100715.34;;;25.95;42.32
4143;BME280;2085;51.052;6.958;2022-09-03T12:51:30;100720.75;;;25.95;42.65
4143;BME280;2085;51.052;6.958;2022-09-03T12:53:57;100717.03;;;25.96;42.60
4143;BME280;2085;51.052;6.958;2022-09-03T12:56:25;100712.97;;;26.00;42.58
4143;BME280;2085;51.052;6.958;2022-09-03T12:59:03;100719.22;;;26.01;42.33
4143;BME280;2085;51.052;6.958;2022-09-03T13:01:32;100717.69;;;26.06;42.41
4143;BME280;2085;51.052;6.958;2022-09-03T13:04:03;100719.47;;;26.14;42.32
4143;BME280;2085;51.052;6.958;2022-09-03T13:06:38;100699.22;;;26.18;42.45
4143;BME280;2085;51.052;6.958;2022-09-03T13:09:09;100697.19;;;26.20;42.17
4143;BME280;2085;51.052;6.958;2022-09-03T13:11:36;100703.09;;;26.24;42.01
4143;BME280;2085;51.052;6.958;2022-09-03T13:14:06;100702.94;;;26.25;42.11
4143;BME280;2085;51.052;6.958;2022-09-03T13:17:04;100694.34;;;26.22;42.33
4143;BME280;2085;51.052;6.958;2022-09-03T13:19:41;100696.56;;;26.10;42.29
4143;BME280;2085;51.052;6.958;2022-09-03T13:22:17;100695.59;;;26.03;42.26
4143;BME280;2085;51.052;6.958;2022-09-03T13:25:02;100699.00;;;25.97;42.54
4143;BME280;2085;51.052;6.958;2022-09-03T13:27:38;100701.88;;;25.95;42.54
4143;BME280;2085;51.052;6.958;2022-09-03T13:30:11;100697.81;;;25.99;42.14
4143;BME280;2085;51.052;6.958;2022-09-03T13:32:48;100688.16;;;26.05;42.38